This is the latest recevied weather packets stored in our database for station/object KM4KMS. If no packets are shown the sender has not sent any weather packets the latest 10 day(s).
| Time | Temp. | Humidity | Pressure | Rain* | Wind** | Luminosity | Snow |
|---|---|---|---|---|---|---|---|
| 1777647303 | 11.67° C | 74% | 1013.2 hPa | 0 mm | - | 105 W/m² | - |
| 1777647001 | 12.22° C | 73% | 1012.9 hPa | 0 mm | - | 207 W/m² | - |
| 1777646696 | 12.22° C | 74% | 1013 hPa | 0 mm | - | 298 W/m² | - |
| 1777646393 | 12.22° C | 74% | 1013 hPa | 0 mm | - | 248 W/m² | - |
| 1777646089 | 12.22° C | 74% | 1012.8 hPa | 0 mm | - | 216 W/m² | - |
| 1777645786 | 12.22° C | 74% | 1012.8 hPa | 0 mm | - | 208 W/m² | - |
| 1777645484 | 12.22° C | 73% | 1012.7 hPa | 0 mm | - | 223 W/m² | - |
| 1777645179 | 12.22° C | 71% | 1012.7 hPa | 0 mm | - | 205 W/m² | - |
| 1777644875 | 12.22° C | 70% | 1012.7 hPa | 0 mm | - | 181 W/m² | - |
| 1777644573 | 12.22° C | 69% | 1012.5 hPa | 0 mm | - | 189 W/m² | - |
| 1777644269 | 12.22° C | 68% | 1012.5 hPa | 0 mm | - | 209 W/m² | - |
| 1777643965 | 12.22° C | 68% | 1012.5 hPa | 0 mm | - | 276 W/m² | - |
| 1777643663 | 12.22° C | 66% | 1012.6 hPa | 0 mm | - | 249 W/m² | - |
| 1777643360 | 12.78° C | 66% | 1012.6 hPa | 0 mm | - | 583 W/m² | - |
| 1777643056 | 11.67° C | 68% | 1012.5 hPa | 0 mm | - | 249 W/m² | - |
| 1777642753 | 12.22° C | 68% | 1012.7 hPa | 0 mm | - | 223 W/m² | - |
| 1777642450 | 12.22° C | 70% | 1012.8 hPa | 0 mm | - | 294 W/m² | - |
| 1777642146 | 11.67° C | 72% | 1012.9 hPa | 0 mm | - | 281 W/m² | - |
| 1777641843 | 11.11° C | 73% | 1012.9 hPa | 0 mm | - | 170 W/m² | - |
| 1777641538 | 11.11° C | 73% | 1012.5 hPa | 0 mm | - | 128 W/m² | - |
| 1777641232 | 11.11° C | 72% | 1012.4 hPa | 0 mm | - | 137 W/m² | - |
| 1777640930 | 11.11° C | 73% | 1012.4 hPa | 0 mm | - | 153 W/m² | - |
| 1777640626 | 11.11° C | 73% | 1012.6 hPa | 0 mm | - | 151 W/m² | - |
| 1777640323 | 10.56° C | 75% | 1012.4 hPa | 0 mm | - | 137 W/m² | - |
| 1777640019 | 10.56° C | 74% | 1012.3 hPa | 0 mm | - | 129 W/m² | - |
* Rain latest hour (hover to see other rain measurements)
** Current wind speed in m/s (hover to see current wind gust speed)